Time;durP1;ratioP1;P1;durP2;ratioP2;P2;SDS_P1;SDS_P2;PMS_P1;PMS_P2;Temp;Humidity;BMP_temperature;BMP_pressure;BME280_temperature;BME280_humidity;BME280_pressure;Samples;Min_cycle;Max_cycle;Signal;HPM_P1;HPM_P2
2022/11/09 00:02:29;;;;;;;5.67;5.37;;;12.20;1.00;;;;;;6304471;28;20273;-53
2022/11/09 00:05:32;;;;;;;4.87;4.57;;;12.20;1.00;;;;;;6301387;27;20258;-54
2022/11/09 00:08:37;;;;;;;5.10;4.80;;;12.20;1.00;;;;;;6294766;28;20596;-54
2022/11/09 00:11:39;;;;;;;5.53;5.23;;;12.20;1.00;;;;;;6302705;28;20229;-53
2022/11/09 00:14:45;;;;;;;5.63;5.20;;;12.10;1.00;;;;;;6304003;28;20237;-54
2022/11/09 00:17:48;;;;;;;5.30;4.80;;;12.10;1.00;;;;;;6284038;28;20233;-54
2022/11/09 00:20:51;;;;;;;5.70;5.23;;;12.10;1.00;;;;;;6300215;28;20240;-53
2022/11/09 00:23:54;;;;;;;4.73;4.53;;;12.10;1.00;;;;;;6307249;27;20248;-55
2022/11/09 00:26:56;;;;;;;5.63;5.13;;;12.10;1.00;;;;;;6283530;28;20241;-54
2022/11/09 00:30:01;;;;;;;5.63;5.13;;;12.10;1.00;;;;;;6284424;28;20237;-54
2022/11/09 00:33:04;;;;;;;5.30;4.93;;;12.10;1.00;;;;;;6283383;28;20283;-54
2022/11/09 00:36:11;;;;;;;4.93;4.53;;;12.10;1.00;;;;;;6283347;28;20237;-52
2022/11/09 00:39:15;;;;;;;4.53;4.30;;;12.10;1.00;;;;;;6305940;28;20233;-56
2022/11/09 00:42:19;;;;;;;4.67;4.47;;;12.00;1.00;;;;;;6294609;28;20229;-53
2022/11/09 00:45:24;;;;;;;6.57;4.67;;;12.00;1.00;;;;;;6307820;28;20711;-54
2022/11/09 00:53:20;;;;;;;4.53;4.43;;;12.10;1.00;;;;;;6306361;28;20514;-54
2022/11/09 00:56:24;;;;;;;5.10;4.77;;;12.10;1.00;;;;;;6309352;28;20241;-54
2022/11/09 00:59:27;;;;;;;4.97;4.70;;;12.10;1.00;;;;;;6299480;28;20242;-55
2022/11/09 01:02:31;;;;;;;5.40;5.00;;;12.10;1.00;;;;;;6290542;28;20237;-55
2022/11/09 01:05:34;;;;;;;4.93;4.73;;;12.10;1.00;;;;;;6281340;28;20476;-54
2022/11/09 01:08:37;;;;;;;4.70;4.43;;;12.10;1.00;;;;;;6294210;28;20229;-54
2022/11/09 01:11:39;;;;;;;4.23;4.03;;;12.10;1.00;;;;;;6298826;28;20229;-55
2022/11/09 01:14:42;;;;;;;4.40;4.20;;;12.10;1.00;;;;;;6305972;28;20237;-54
2022/11/09 01:17:47;;;;;;;4.10;4.00;;;12.00;1.00;;;;;;6288295;28;20236;-58
2022/11/09 01:20:51;;;;;;;4.60;4.20;;;12.00;1.00;;;;;;6283780;28;20743;-55
2022/11/09 01:23:57;;;;;;;4.20;4.00;;;12.00;1.00;;;;;;6307182;28;20232;-53
2022/11/09 01:27:01;;;;;;;3.97;3.87;;;12.00;1.00;;;;;;6307069;28;20477;-55
2022/11/09 01:30:05;;;;;;;3.90;3.70;;;12.00;1.00;;;;;;6289650;28;20233;-54
2022/11/09 01:33:12;;;;;;;4.30;4.00;;;12.00;1.00;;;;;;6281842;28;20453;-54
2022/11/09 01:36:18;;;;;;;4.93;4.53;;;11.90;1.00;;;;;;6281805;28;20241;-54
2022/11/09 01:39:21;;;;;;;4.77;4.50;;;11.90;1.00;;;;;;6297072;28;20253;-54
2022/11/09 01:42:25;;;;;;;4.50;4.10;;;11.90;1.00;;;;;;6299019;28;20597;-54
2022/11/09 01:45:30;;;;;;;4.97;4.70;;;11.90;1.00;;;;;;6306372;28;20233;-55
2022/11/09 01:48:38;;;;;;;4.20;4.10;;;11.90;1.00;;;;;;6294093;28;20244;-53
2022/11/09 01:51:44;;;;;;;6.33;4.30;;;11.90;1.00;;;;;;6281296;28;20229;-55
2022/11/09 01:54:50;;;;;;;4.13;3.83;;;11.90;1.00;;;;;;6282268;28;20757;-52
2022/11/09 01:57:57;;;;;;;4.10;4.00;;;11.80;1.00;;;;;;6281043;28;20387;-55
2022/11/09 02:01:01;;;;;;;4.20;3.90;;;11.80;1.00;;;;;;6282967;28;20237;-54
2022/11/09 02:04:09;;;;;;;4.20;4.00;;;11.80;1.00;;;;;;6282009;28;20480;-54
2022/11/09 02:07:13;;;;;;;4.80;4.37;;;11.70;1.00;;;;;;6287143;28;20718;-55
2022/11/09 02:10:29;;;;;;;3.63;3.50;;;11.80;1.00;;;;;;6296835;28;20350;-54
2022/11/09 02:13:45;;;;;;;4.30;4.07;;;11.70;1.00;;;;;;6297511;28;20237;-54
2022/11/09 02:16:47;;;;;;;4.10;3.90;;;11.70;1.00;;;;;;6306931;28;20239;-55
2022/11/09 02:19:53;;;;;;;4.40;3.93;;;11.60;1.00;;;;;;6297096;28;20245;-53
2022/11/09 02:22:57;;;;;;;4.10;3.80;;;11.60;1.00;;;;;;6281381;28;20268;-54
2022/11/09 02:26:08;;;;;;;4.67;4.37;;;11.60;1.00;;;;;;6282690;28;20237;-54
2022/11/09 02:29:16;;;;;;;3.77;3.67;;;11.60;1.00;;;;;;6280452;28;20635;-55
2022/11/09 02:32:22;;;;;;;4.87;4.50;;;11.50;1.00;;;;;;6281649;28;20342;-55
2022/11/09 02:35:25;;;;;;;4.50;4.30;;;11.50;1.00;;;;;;6280512;28;20399;-53
2022/11/09 02:38:29;;;;;;;4.37;4.20;;;11.50;1.00;;;;;;6295939;28;20233;-54
2022/11/09 02:41:36;;;;;;;4.60;4.33;;;11.50;1.00;;;;;;6303840;28;20241;-54
2022/11/09 02:44:43;;;;;;;4.10;3.90;;;11.50;1.00;;;;;;6304789;28;20698;-58
2022/11/09 02:47:46;;;;;;;4.90;4.70;;;11.50;1.00;;;;;;6307580;28;20233;-54
2022/11/09 02:50:48;;;;;;;4.53;4.33;;;11.40;1.00;;;;;;6296496;28;20237;-54
2022/11/09 02:53:53;;;;;;;3.87;3.70;;;11.40;1.00;;;;;;6286393;28;20237;-54
2022/11/09 02:56:56;;;;;;;4.57;4.20;;;11.40;1.00;;;;;;6285377;28;20233;-54
2022/11/09 02:59:59;;;;;;;4.47;4.17;;;11.40;1.00;;;;;;6286331;28;20597;-54
2022/11/09 03:03:02;;;;;;;4.20;3.90;;;11.40;1.00;;;;;;6285475;28;20245;-52
2022/11/09 03:06:05;;;;;;;4.80;4.47;;;11.40;1.00;;;;;;6285306;28;20230;-53
2022/11/09 03:09:14;;;;;;;4.87;4.50;;;11.40;1.00;;;;;;6297442;28;20413;-53
2022/11/09 03:12:28;;;;;;;4.27;4.07;;;11.40;1.00;;;;;;6302561;28;20248;-55
2022/11/09 03:15:31;;;;;;;4.20;4.00;;;11.40;1.00;;;;;;6285041;28;20252;-55
2022/11/09 03:18:34;;;;;;;4.20;3.90;;;11.40;1.00;;;;;;6286053;28;20237;-55
2022/11/09 03:21:37;;;;;;;4.40;4.20;;;11.50;1.00;;;;;;6308632;28;20255;-55
2022/11/09 03:24:41;;;;;;;4.50;4.20;;;11.50;1.00;;;;;;6308615;28;20232;-54
2022/11/09 03:27:44;;;;;;;4.60;4.40;;;11.50;1.00;;;;;;6284705;28;20392;-54
2022/11/09 03:30:47;;;;;;;3.80;3.70;;;11.40;1.00;;;;;;6285476;28;20417;-54
2022/11/09 03:33:50;;;;;;;4.10;3.90;;;11.50;1.00;;;;;;6284890;28;20562;-55
2022/11/09 03:36:52;;;;;;;4.30;3.97;;;11.40;1.00;;;;;;6284343;28;20240;-55
2022/11/09 03:39:57;;;;;;;4.17;3.97;;;11.40;1.00;;;;;;6301976;28;20225;-55
2022/11/09 03:42:59;;;;;;;4.33;4.07;;;11.40;1.00;;;;;;6297309;28;20237;-50
2022/11/09 03:46:02;;;;;;;3.83;3.63;;;11.40;1.00;;;;;;6284645;28;20577;-54
2022/11/09 03:49:05;;;;;;;4.00;3.80;;;11.40;1.00;;;;;;6280560;28;20244;-53
2022/11/09 03:52:08;;;;;;;4.00;3.90;;;11.40;1.00;;;;;;6284796;28;20633;-58
2022/11/09 03:55:13;;;;;;;3.87;3.63;;;11.40;1.00;;;;;;6285310;28;20430;-55
2022/11/09 03:58:24;;;;;;;4.57;4.27;;;11.40;1.00;;;;;;6283837;28;20371;-55
2022/11/09 04:01:28;;;;;;;4.27;3.97;;;11.40;1.00;;;;;;6283749;28;20237;-54
2022/11/09 04:04:31;;;;;;;4.07;3.97;;;11.40;1.00;;;;;;6284580;28;20383;-53
2022/11/09 04:07:34;;;;;;;4.70;4.50;;;11.50;1.00;;;;;;6293875;28;20236;-53
2022/11/09 04:10:38;;;;;;;4.93;4.33;;;11.50;1.00;;;;;;6300811;28;20244;-53
2022/11/09 04:13:41;;;;;;;4.07;3.77;;;11.60;1.00;;;;;;6301131;28;20255;-54
2022/11/09 04:16:44;;;;;;;4.73;4.53;;;11.60;1.00;;;;;;6294431;28;20241;-54
2022/11/09 04:19:47;;;;;;;3.83;3.63;;;11.60;1.00;;;;;;6300091;28;20238;-54
2022/11/09 04:23:01;;;;;;;4.73;4.47;;;11.60;1.00;;;;;;6299397;28;20636;-54
2022/11/09 04:26:06;;;;;;;4.40;4.00;;;11.60;1.00;;;;;;6291807;28;20237;-54
2022/11/09 04:29:10;;;;;;;4.87;4.47;;;11.60;1.00;;;;;;6283322;28;20252;-55
2022/11/09 04:32:13;;;;;;;4.83;4.43;;;11.70;1.00;;;;;;6275925;28;20422;-54
2022/11/09 04:35:16;;;;;;;4.30;4.10;;;11.70;1.00;;;;;;6295758;28;20245;-53
2022/11/09 04:38:19;;;;;;;4.13;4.03;;;11.70;1.00;;;;;;6291288;28;20233;-55
2022/11/09 04:41:25;;;;;;;4.40;4.30;;;11.70;1.00;;;;;;6288478;28;20647;-55
2022/11/09 04:44:30;;;;;;;4.20;3.90;;;11.70;1.00;;;;;;6301229;28;20233;-55
2022/11/09 04:47:32;;;;;;;4.50;4.30;;;11.70;1.00;;;;;;6289684;28;20736;-55
2022/11/09 04:50:35;;;;;;;4.47;4.27;;;11.70;1.00;;;;;;6287691;28;20982;-55
2022/11/09 04:53:39;;;;;;;4.63;4.33;;;11.70;1.00;;;;;;6286491;28;20253;-54
2022/11/09 04:56:43;;;;;;;4.60;4.20;;;11.60;1.00;;;;;;6302543;28;20247;-53
2022/11/09 04:59:46;;;;;;;4.07;3.93;;;11.60;1.00;;;;;;6298615;28;20290;-52
2022/11/09 05:02:48;;;;;;;4.40;4.30;;;11.60;1.00;;;;;;6290185;28;20244;-54
2022/11/09 05:05:59;;;;;;;4.27;4.10;;;11.60;1.00;;;;;;6282311;28;20260;-55
2022/11/09 05:09:03;;;;;;;4.30;4.10;;;11.60;1.00;;;;;;6287809;28;20237;-53
2022/11/09 05:12:08;;;;;;;4.63;4.33;;;11.70;1.00;;;;;;6291405;28;20627;-53
2022/11/09 05:15:14;;;;;;;4.87;4.57;;;11.70;1.00;;;;;;6293278;28;20241;-53
2022/11/09 05:18:17;;;;;;;4.77;4.47;;;11.70;1.00;;;;;;6284234;28;20263;-53
2022/11/09 05:21:20;;;;;;;5.03;4.73;;;11.70;1.00;;;;;;6290381;28;20240;-54
2022/11/09 05:24:22;;;;;;;5.73;4.67;;;11.70;1.00;;;;;;6290907;28;20780;-53
2022/11/09 05:27:26;;;;;;;5.33;5.03;;;11.70;1.00;;;;;;6291593;28;20634;-53
2022/11/09 05:30:29;;;;;;;5.77;5.33;;;11.70;1.00;;;;;;6287540;28;20226;-53
2022/11/09 05:33:32;;;;;;;5.07;4.73;;;11.70;1.00;;;;;;6284732;28;20237;-54
2022/11/09 05:36:34;;;;;;;5.27;4.43;;;11.70;1.00;;;;;;6287285;28;20229;-55
2022/11/09 05:39:37;;;;;;;4.60;4.30;;;11.70;1.00;;;;;;6299329;28;20229;-54
2022/11/09 05:42:41;;;;;;;4.70;4.47;;;11.70;1.00;;;;;;6294209;28;20787;-54
2022/11/09 05:45:45;;;;;;;4.87;4.57;;;11.70;1.00;;;;;;6294475;28;20415;-55
2022/11/09 05:48:47;;;;;;;6.10;5.50;;;11.70;1.00;;;;;;6283096;28;20240;-54
2022/11/09 05:51:50;;;;;;;5.27;4.97;;;11.70;1.00;;;;;;6301925;28;20232;-53
2022/11/09 05:54:53;;;;;;;4.50;4.40;;;11.70;1.00;;;;;;6305403;28;20259;-53
2022/11/09 05:57:57;;;;;;;4.83;4.57;;;11.70;1.00;;;;;;6288245;28;20240;-52
2022/11/09 06:01:00;;;;;;;4.83;4.57;;;11.70;1.00;;;;;;6297193;28;20351;-53
2022/11/09 06:04:03;;;;;;;5.73;5.10;;;11.60;1.00;;;;;;6305143;28;20229;-53
2022/11/09 06:07:06;;;;;;;4.80;4.60;;;11.60;1.00;;;;;;6297176;28;20651;-55
2022/11/09 06:10:10;;;;;;;5.57;4.80;;;11.70;1.00;;;;;;6300948;28;20236;-53
2022/11/09 06:13:14;;;;;;;5.10;4.80;;;11.70;1.00;;;;;;6295748;28;21210;-54
2022/11/09 06:16:17;;;;;;;4.90;4.70;;;11.70;1.00;;;;;;6285771;28;20240;-54
2022/11/09 06:19:19;;;;;;;5.17;4.63;;;11.70;1.00;;;;;;6285749;28;20741;-53
2022/11/09 06:22:22;;;;;;;5.70;5.30;;;11.70;1.00;;;;;;6295488;28;20386;-54
2022/11/09 06:25:26;;;;;;;5.70;5.30;;;11.80;1.00;;;;;;6300202;28;20243;-54
2022/11/09 06:28:30;;;;;;;4.73;4.53;;;11.80;1.00;;;;;;6303575;28;20713;-53
2022/11/09 06:31:33;;;;;;;5.30;4.80;;;11.80;1.00;;;;;;6301496;28;20240;-54
2022/11/09 06:34:36;;;;;;;5.37;4.97;;;11.80;1.00;;;;;;6290846;28;20341;-55
2022/11/09 06:37:39;;;;;;;8.83;5.27;;;11.80;1.00;;;;;;6293548;28;20232;-53
2022/11/09 06:40:41;;;;;;;5.30;5.00;;;11.80;1.00;;;;;;6294679;28;20481;-53
2022/11/09 06:43:46;;;;;;;7.23;4.90;;;11.80;1.00;;;;;;6309534;28;20887;-54
2022/11/09 06:46:49;;;;;;;5.30;4.87;;;11.90;1.00;;;;;;6288886;28;20237;-54
2022/11/09 06:49:51;;;;;;;5.00;4.57;;;11.90;1.00;;;;;;6301571;28;20240;-60
2022/11/09 06:52:57;;;;;;;5.27;4.97;;;11.90;1.00;;;;;;6288216;28;20730;-54
2022/11/09 06:56:01;;;;;;;5.57;5.10;;;11.90;1.00;;;;;;6294982;28;20557;-54
2022/11/09 06:59:05;;;;;;;5.50;5.10;;;11.90;1.00;;;;;;6293200;28;20233;-55
2022/11/09 07:02:09;;;;;;;5.60;5.23;;;11.90;1.00;;;;;;6295463;28;20266;-54
2022/11/09 07:05:12;;;;;;;7.63;5.37;;;12.00;1.00;;;;;;6303154;28;20294;-53
2022/11/09 07:08:15;;;;;;;6.70;6.10;;;12.00;1.00;;;;;;6303048;28;20445;-53
2022/11/09 07:11:19;;;;;;;6.67;6.10;;;11.90;1.00;;;;;;6292004;28;20410;-53
2022/11/09 07:14:24;;;;;;;6.20;5.70;;;11.90;1.00;;;;;;6294863;28;20706;-53
2022/11/09 07:17:29;;;;;;;5.90;5.60;;;11.90;1.00;;;;;;6292590;28;20717;-53
2022/11/09 07:20:32;;;;;;;6.13;5.63;;;11.80;1.00;;;;;;6289655;28;20777;-53
2022/11/09 07:23:35;;;;;;;5.47;5.07;;;11.80;1.00;;;;;;6287690;28;20241;-54
2022/11/09 07:26:38;;;;;;;5.70;5.27;;;11.80;1.00;;;;;;6279916;28;20225;-53
2022/11/09 07:29:42;;;;;;;4.90;4.60;;;11.70;1.00;;;;;;6283229;28;20303;-53
2022/11/09 07:32:45;;;;;;;5.80;5.03;;;11.70;1.00;;;;;;6286345;28;20729;-53
2022/11/09 07:36:09;;;;;;;5.93;5.43;;;11.70;1.00;;;;;;6298194;28;20657;-53
2022/11/09 07:39:12;;;;;;;5.90;5.50;;;11.70;1.00;;;;;;6291319;28;20701;-54
2022/11/09 07:42:15;;;;;;;6.63;5.90;;;11.70;1.00;;;;;;6302192;28;20756;-53
2022/11/09 07:45:19;;;;;;;5.83;5.43;;;11.70;1.00;;;;;;6305475;28;20858;-54
2022/11/09 07:48:22;;;;;;;6.20;5.80;;;11.70;1.00;;;;;;6297008;28;20252;-53
2022/11/09 07:51:25;;;;;;;7.73;5.87;;;11.80;1.00;;;;;;6301170;28;20229;-54
2022/11/09 07:54:28;;;;;;;7.77;6.07;;;11.80;1.00;;;;;;6289083;28;20239;-54
2022/11/09 07:57:31;;;;;;;6.77;6.43;;;11.80;1.00;;;;;;6297663;28;20714;-52
2022/11/09 08:00:38;;;;;;;5.27;4.97;;;11.80;1.00;;;;;;6289791;28;20232;-53
2022/11/09 08:03:41;;;;;;;7.73;5.97;;;11.70;1.00;;;;;;6301658;28;20355;-53
2022/11/09 08:06:45;;;;;;;7.20;6.27;;;11.70;1.00;;;;;;6297979;28;20229;-54
2022/11/09 08:09:48;;;;;;;6.60;6.03;;;11.70;1.00;;;;;;6306389;28;20228;-54
2022/11/09 08:12:55;;;;;;;7.40;6.80;;;11.70;1.00;;;;;;6304641;28;20400;-54
2022/11/09 08:16:02;;;;;;;6.20;5.80;;;11.80;1.00;;;;;;6294967;28;20483;-54
2022/11/09 08:19:07;;;;;;;6.50;6.10;;;11.90;1.00;;;;;;6298819;28;20495;-53
2022/11/09 08:22:10;;;;;;;6.77;6.30;;;11.80;1.00;;;;;;6293756;28;20252;-52
2022/11/09 08:25:14;;;;;;;5.93;5.60;;;11.80;1.00;;;;;;6306650;28;20237;-54
2022/11/09 08:28:17;;;;;;;8.40;6.50;;;11.80;1.00;;;;;;6294268;28;20241;-54
2022/11/09 08:31:22;;;;;;;6.53;5.93;;;11.80;1.00;;;;;;6298817;28;20229;-54
2022/11/09 08:34:25;;;;;;;6.93;6.03;;;11.80;1.00;;;;;;6284679;28;20237;-55
2022/11/09 08:37:28;;;;;;;7.40;6.67;;;11.80;1.00;;;;;;6294336;28;20235;-52
2022/11/09 08:40:32;;;;;;;10.40;6.60;;;11.80;1.00;;;;;;6297465;28;20263;-52
2022/11/09 08:43:35;;;;;;;7.03;6.60;;;11.90;1.00;;;;;;6298293;28;20232;-53
2022/11/09 08:46:39;;;;;;;7.40;6.80;;;11.90;1.00;;;;;;6292993;28;20248;-53
2022/11/09 08:49:45;;;;;;;6.83;6.20;;;11.90;1.00;;;;;;6298065;28;20229;-57
2022/11/09 08:52:48;;;;;;;7.27;6.43;;;11.90;1.00;;;;;;6298061;28;20741;-54
2022/11/09 08:55:52;;;;;;;7.00;6.50;;;11.90;1.00;;;;;;6292493;28;20233;-53
2022/11/09 08:58:54;;;;;;;7.00;6.33;;;11.90;1.00;;;;;;6295235;28;20233;-54
2022/11/09 09:01:59;;;;;;;6.60;6.20;;;11.90;1.00;;;;;;6286647;28;20744;-55
2022/11/09 09:05:01;;;;;;;7.77;6.20;;;11.90;1.00;;;;;;6285601;28;20233;-54
2022/11/09 09:08:06;;;;;;;7.13;6.67;;;12.00;1.00;;;;;;6289894;28;20233;-54
2022/11/09 09:11:08;;;;;;;7.03;6.60;;;12.00;1.00;;;;;;6296327;28;20495;-52
2022/11/09 09:14:12;;;;;;;7.10;6.60;;;12.00;1.00;;;;;;6299098;28;20249;-52
2022/11/09 09:17:16;;;;;;;7.10;6.50;;;12.00;1.00;;;;;;6291686;28;20240;-54
2022/11/09 09:20:19;;;;;;;5.77;5.57;;;12.10;1.00;;;;;;6285177;28;20265;-53
2022/11/09 09:23:22;;;;;;;6.63;6.07;;;12.10;1.00;;;;;;6296151;28;20259;-56
2022/11/09 09:26:25;;;;;;;6.47;5.97;;;12.20;1.00;;;;;;6291808;28;20490;-53
2022/11/09 09:29:28;;;;;;;7.00;6.50;;;12.20;1.00;;;;;;6291170;28;20244;-53
2022/11/09 09:32:32;;;;;;;7.53;6.93;;;12.30;1.00;;;;;;6286251;28;20236;-53
2022/11/09 09:35:35;;;;;;;6.43;5.90;;;12.40;1.00;;;;;;6292649;28;20643;-53
2022/11/09 09:38:38;;;;;;;7.47;6.90;;;12.40;1.00;;;;;;6290134;28;20229;-52
2022/11/09 09:41:45;;;;;;;6.60;6.10;;;12.50;1.00;;;;;;6286199;28;20729;-53
2022/11/09 09:44:54;;;;;;;6.97;6.33;;;12.60;1.00;;;;;;6294319;28;20582;-53
2022/11/09 09:48:03;;;;;;;6.57;5.97;;;12.70;1.00;;;;;;6300525;28;20226;-52
2022/11/09 09:51:13;;;;;;;6.33;5.77;;;12.70;1.00;;;;;;6285117;28;20233;-54
2022/11/09 09:54:19;;;;;;;7.70;6.20;;;12.80;1.00;;;;;;6286920;28;20539;-54
2022/11/09 09:57:24;;;;;;;6.77;6.27;;;12.70;1.00;;;;;;6284142;28;20228;-53
2022/11/09 10:00:28;;;;;;;7.30;6.60;;;12.70;1.00;;;;;;6285380;28;20698;-52
2022/11/09 10:03:37;;;;;;;6.40;6.07;;;12.70;1.00;;;;;;6298304;28;20236;-53
2022/11/09 10:06:47;;;;;;;6.07;5.77;;;12.60;1.00;;;;;;6288158;28;20237;-53
2022/11/09 10:10:07;;;;;;;6.87;6.37;;;12.60;1.00;;;;;;6294127;28;20310;-53
2022/11/09 10:13:43;;;;;;;6.77;6.17;;;12.60;1.00;;;;;;6292063;28;20253;-53
2022/11/09 10:16:55;;;;;;;6.70;6.20;;;12.70;1.00;;;;;;6289603;28;20621;-52
2022/11/09 10:20:12;;;;;;;7.17;6.57;;;12.70;1.00;;;;;;6294186;28;20456;-52
2022/11/09 10:23:38;;;;;;;7.57;6.87;;;12.70;1.00;;;;;;6293964;28;20737;-52
2022/11/09 10:26:44;;;;;;;6.53;6.03;;;12.70;1.00;;;;;;6302284;28;20252;-54
2022/11/09 10:29:50;;;;;;;6.10;5.77;;;12.70;1.00;;;;;;6293913;28;20375;-53
2022/11/09 10:32:56;;;;;;;7.17;6.13;;;12.70;1.00;;;;;;6287936;28;20726;-53
2022/11/09 10:36:11;;;;;;;6.53;6.03;;;12.70;1.00;;;;;;6291201;28;20260;-53
2022/11/09 10:39:15;;;;;;;6.53;6.13;;;12.80;1.00;;;;;;6291301;28;20685;-55
2022/11/09 10:42:18;;;;;;;6.83;6.23;;;12.80;1.00;;;;;;6281538;28;20241;-52
2022/11/09 10:45:29;;;;;;;6.27;5.80;;;13.00;1.00;;;;;;6282314;28;20236;-53
2022/11/09 10:48:36;;;;;;;5.93;5.40;;;13.10;1.00;;;;;;6294740;28;20252;-52
2022/11/09 10:51:42;;;;;;;6.53;5.93;;;13.20;1.00;;;;;;6298859;28;20626;-54
2022/11/09 10:54:45;;;;;;;5.90;5.50;;;13.50;1.00;;;;;;6290518;28;20233;-53
2022/11/09 10:57:55;;;;;;;5.63;5.17;;;13.60;1.00;;;;;;6299703;28;20636;-53
2022/11/09 11:01:01;;;;;;;5.93;5.63;;;13.70;1.00;;;;;;6301669;28;20300;-53
2022/11/09 11:04:19;;;;;;;5.60;5.30;;;13.90;1.00;;;;;;6302143;28;20264;-53
2022/11/09 11:07:23;;;;;;;5.80;5.13;;;14.00;1.00;;;;;;6286064;28;20233;-56
2022/11/09 11:10:26;;;;;;;5.20;4.90;;;14.30;1.00;;;;;;6289651;28;20782;-53
2022/11/09 11:13:29;;;;;;;5.00;4.60;;;14.30;1.00;;;;;;6304529;28;20231;-53
2022/11/09 11:16:34;;;;;;;5.17;4.87;;;14.50;1.00;;;;;;6302860;28;20239;-53
2022/11/09 11:19:41;;;;;;;5.00;4.80;;;14.50;1.00;;;;;;6293894;28;20634;-53
2022/11/09 11:22:45;;;;;;;4.90;4.80;;;14.50;1.00;;;;;;6296556;28;20237;-53
2022/11/09 11:26:00;;;;;;;4.80;4.50;;;14.70;1.00;;;;;;6298606;28;20268;-53
2022/11/09 11:29:12;;;;;;;4.70;4.50;;;14.90;1.00;;;;;;6291780;28;20284;-54
2022/11/09 11:32:18;;;;;;;4.60;4.20;;;15.00;1.00;;;;;;6295289;28;20440;-53
2022/11/09 11:35:31;;;;;;;4.73;4.33;;;15.20;1.00;;;;;;6292475;28;20241;-53
2022/11/09 11:38:39;;;;;;;5.00;4.50;;;15.40;1.00;;;;;;6284496;28;20226;-59
2022/11/09 11:41:57;;;;;;;4.00;3.90;;;15.30;1.00;;;;;;6301452;28;20862;-53
2022/11/09 11:45:13;;;;;;;4.30;4.10;;;15.50;1.00;;;;;;6293945;28;20234;-52
2022/11/09 11:49:04;;;;;;;4.50;4.20;;;15.40;1.00;;;;;;6306486;28;20275;-52
2022/11/09 11:52:15;;;;;;;4.37;4.07;;;15.40;1.00;;;;;;6298315;28;20237;-52
2022/11/09 11:55:36;;;;;;;4.00;3.87;;;15.50;1.00;;;;;;6288117;28;20335;-53
2022/11/09 11:58:49;;;;;;;4.20;4.10;;;15.50;1.00;;;;;;6299238;28;20245;-54
2022/11/09 12:02:19;;;;;;;4.07;3.87;;;15.50;1.00;;;;;;6292824;28;20683;-53
2022/11/09 12:05:57;;;;;;;3.80;3.70;;;15.50;1.00;;;;;;6307475;28;20619;-53
2022/11/09 12:09:10;;;;;;;3.87;3.60;;;15.50;1.00;;;;;;6303938;28;20666;-53
2022/11/09 12:12:24;;;;;;;4.07;3.87;;;15.40;1.00;;;;;;6290965;28;20242;-52
2022/11/09 12:15:39;;;;;;;4.50;4.07;;;15.30;1.00;;;;;;6295980;28;20239;-54
2022/11/09 12:18:55;;;;;;;4.20;3.90;;;15.30;1.00;;;;;;6285443;28;20229;-53
2022/11/09 12:22:08;;;;;;;4.07;3.97;;;15.50;1.00;;;;;;6297075;28;20734;-53
2022/11/09 12:25:18;;;;;;;4.37;4.17;;;15.60;1.00;;;;;;6290860;28;20267;-53
2022/11/09 12:28:42;;;;;;;3.73;3.50;;;15.60;1.00;;;;;;6290553;28;20237;-53
2022/11/09 12:31:56;;;;;;;4.07;3.77;;;15.50;1.00;;;;;;6293752;28;20612;-52
2022/11/09 12:35:16;;;;;;;4.13;3.93;;;15.30;1.00;;;;;;6290535;28;20234;-54
2022/11/09 12:42:52;;;;;;;4.83;4.43;;;15.40;1.00;;;;;;6281261;28;20454;-53
2022/11/09 12:45:59;;;;;;;4.00;3.80;;;15.50;1.00;;;;;;6283243;28;20233;-54
2022/11/09 12:49:05;;;;;;;3.83;3.53;;;15.50;1.00;;;;;;6283371;28;20240;-54
2022/11/09 12:52:12;;;;;;;4.30;3.90;;;15.40;1.00;;;;;;6298858;28;20244;-53
2022/11/09 12:55:22;;;;;;;3.77;3.53;;;15.30;1.00;;;;;;6294369;28;20229;-53
2022/11/09 12:58:28;;;;;;;4.70;3.10;;;15.40;1.00;;;;;;6297353;28;20233;-54
2022/11/09 13:01:54;;;;;;;3.77;3.57;;;15.40;1.00;;;;;;6289571;28;20243;-52
2022/11/09 13:05:31;;;;;;;4.07;3.70;;;15.40;1.00;;;;;;6287489;28;20721;-52
2022/11/09 13:08:34;;;;;;;4.13;3.83;;;15.40;1.00;;;;;;6299000;28;20232;-52
2022/11/09 13:11:38;;;;;;;3.37;3.17;;;15.50;1.00;;;;;;6288176;28;20327;-52
2022/11/09 13:14:41;;;;;;;3.43;3.23;;;15.40;1.00;;;;;;6297631;28;20690;-54
2022/11/09 13:18:05;;;;;;;3.40;3.20;;;15.40;1.00;;;;;;6301388;28;20232;-52
2022/11/09 13:21:46;;;;;;;3.90;3.70;;;15.30;1.00;;;;;;6289792;28;20718;-53
2022/11/09 13:24:51;;;;;;;4.63;4.33;;;15.30;1.00;;;;;;6286726;28;20396;-51
2022/11/09 13:27:56;;;;;;;4.30;3.10;;;15.20;1.00;;;;;;6296355;28;20422;-53
2022/11/09 13:31:00;;;;;;;4.00;3.70;;;15.20;1.00;;;;;;6298953;28;20632;-53
2022/11/09 13:34:36;;;;;;;3.83;3.53;;;15.20;1.00;;;;;;6290294;28;20240;-53
2022/11/09 13:37:54;;;;;;;3.73;3.53;;;15.10;1.00;;;;;;6270124;28;20670;-53
2022/11/09 13:40:58;;;;;;;3.87;3.77;;;15.10;1.00;;;;;;6288440;28;20233;-54
2022/11/09 13:44:14;;;;;;;3.10;2.90;;;15.10;1.00;;;;;;6283693;28;20586;-52
2022/11/09 13:47:27;;;;;;;3.10;3.10;;;15.00;1.00;;;;;;6291203;28;20245;-54
2022/11/09 13:50:32;;;;;;;2.97;2.97;;;14.90;1.00;;;;;;6284713;28;20555;-54
2022/11/09 13:53:53;;;;;;;3.00;2.90;;;14.90;1.00;;;;;;6294845;28;20229;-52
2022/11/09 13:56:57;;;;;;;3.53;3.43;;;14.90;1.00;;;;;;6287027;28;20356;-54
2022/11/09 14:00:00;;;;;;;3.47;3.27;;;14.80;1.00;;;;;;6292706;28;20248;-52
2022/11/09 14:03:15;;;;;;;3.13;3.03;;;14.80;1.00;;;;;;6283112;28;20244;-53
2022/11/09 14:06:19;;;;;;;3.40;3.30;;;14.70;1.00;;;;;;6283812;28;20241;-54
2022/11/09 14:09:23;;;;;;;3.70;3.60;;;14.70;1.00;;;;;;6296058;28;20233;-53
2022/11/09 14:12:40;;;;;;;4.10;3.90;;;14.60;1.00;;;;;;6293510;28;20821;-53
2022/11/09 14:15:50;;;;;;;3.60;3.50;;;14.60;1.00;;;;;;6288851;28;20610;-54
2022/11/09 14:19:06;;;;;;;4.27;4.17;;;14.50;1.00;;;;;;6292770;28;20729;-53
2022/11/09 14:22:15;;;;;;;4.23;3.97;;;14.40;1.00;;;;;;6284563;28;20237;-56
2022/11/09 14:25:23;;;;;;;4.77;4.57;;;14.40;1.00;;;;;;6289646;28;20241;-53
2022/11/09 14:28:28;;;;;;;4.93;4.53;;;14.40;1.00;;;;;;6294229;28;20244;-54
2022/11/09 14:31:31;;;;;;;4.30;4.10;;;14.30;1.00;;;;;;6294892;28;20252;-54
2022/11/09 14:34:34;;;;;;;5.40;4.07;;;14.20;1.00;;;;;;6296399;28;20852;-53
2022/11/09 14:37:37;;;;;;;4.90;4.53;;;14.20;1.00;;;;;;6299302;28;20240;-57
2022/11/09 14:40:44;;;;;;;5.27;4.80;;;14.20;1.00;;;;;;6291011;28;20255;-53
2022/11/09 14:43:49;;;;;;;4.77;4.47;;;14.20;1.00;;;;;;6294862;28;20283;-54
2022/11/09 14:46:53;;;;;;;4.43;4.03;;;14.20;1.00;;;;;;6295641;28;20244;-54
2022/11/09 14:49:57;;;;;;;8.90;7.97;;;14.20;1.00;;;;;;6294013;28;20244;-54
2022/11/09 14:53:03;;;;;;;5.50;4.37;;;14.10;1.00;;;;;;6295346;28;20667;-54
2022/11/09 14:56:13;;;;;;;4.50;4.20;;;14.10;1.00;;;;;;6291966;28;20229;-54
2022/11/09 14:59:22;;;;;;;4.63;4.27;;;14.00;1.00;;;;;;6295152;28;20260;-53
2022/11/09 15:02:26;;;;;;;4.27;4.07;;;14.00;1.00;;;;;;6298636;28;20244;-53
2022/11/09 15:05:38;;;;;;;4.73;4.63;;;14.00;1.00;;;;;;6297698;28;20303;-51
2022/11/09 15:08:56;;;;;;;5.03;4.70;;;13.90;1.00;;;;;;6298671;28;20750;-55
2022/11/09 15:12:02;;;;;;;4.60;4.40;;;13.90;1.00;;;;;;6296979;28;20246;-52
2022/11/09 15:15:07;;;;;;;6.37;5.10;;;13.80;1.00;;;;;;6281808;28;20797;-54
2022/11/09 15:18:19;;;;;;;5.03;4.73;;;13.70;1.00;;;;;;6303353;28;20236;-54
2022/11/09 15:21:34;;;;;;;5.20;4.90;;;13.70;1.00;;;;;;6290449;28;20225;-53
2022/11/09 15:24:47;;;;;;;4.87;4.50;;;13.60;1.00;;;;;;6288057;28;20710;-54
2022/11/09 15:28:23;;;;;;;5.70;5.03;;;13.60;1.00;;;;;;6298662;28;20229;-54
2022/11/09 15:31:27;;;;;;;6.40;5.13;;;13.50;1.00;;;;;;6308566;28;20247;-53
2022/11/09 15:34:38;;;;;;;6.87;6.30;;;13.50;1.00;;;;;;6298755;28;20236;-53
2022/11/09 15:37:50;;;;;;;10.70;6.00;;;13.40;1.00;;;;;;6295216;27;20237;-54
2022/11/09 15:40:53;;;;;;;5.73;5.43;;;13.30;1.00;;;;;;6288397;28;20463;-54
2022/11/09 15:43:58;;;;;;;6.23;5.63;;;13.20;1.00;;;;;;6297792;28;20236;-54
2022/11/09 15:47:01;;;;;;;7.10;6.57;;;13.20;1.00;;;;;;6290001;28;20241;-56
2022/11/09 15:50:17;;;;;;;7.57;6.87;;;13.20;1.00;;;;;;6302799;28;20824;-53
2022/11/09 15:53:20;;;;;;;6.13;5.57;;;13.20;1.00;;;;;;6302225;28;20520;-53
2022/11/09 15:56:24;;;;;;;8.63;7.67;;;13.10;1.00;;;;;;6297509;28;20618;-55
2022/11/09 15:59:29;;;;;;;7.30;6.63;;;13.10;1.00;;;;;;6296285;28;20602;-53
2022/11/09 16:02:32;;;;;;;8.70;8.00;;;13.10;1.00;;;;;;6296878;28;20761;-54
2022/11/09 16:05:35;;;;;;;7.23;6.73;;;13.00;1.00;;;;;;6288894;28;20237;-54
2022/11/09 16:08:38;;;;;;;6.83;6.23;;;13.00;1.00;;;;;;6302620;28;20237;-52
2022/11/09 16:11:41;;;;;;;6.00;5.60;;;13.00;1.00;;;;;;6303102;28;20638;-54
2022/11/09 16:14:45;;;;;;;6.37;6.07;;;12.90;1.00;;;;;;6287056;28;20237;-55
2022/11/09 16:17:49;;;;;;;5.60;5.27;;;12.90;1.00;;;;;;6291742;28;20490;-53
2022/11/09 16:20:52;;;;;;;7.03;6.53;;;12.90;1.00;;;;;;6290823;28;20468;-54
2022/11/09 16:23:55;;;;;;;9.07;8.37;;;12.90;1.00;;;;;;6300355;28;20249;-54
2022/11/09 16:27:08;;;;;;;7.37;6.67;;;12.90;1.00;;;;;;6297550;28;20236;-53
2022/11/09 16:30:25;;;;;;;6.70;6.30;;;12.90;1.00;;;;;;6296581;28;20233;-53
2022/11/09 16:33:28;;;;;;;7.50;6.73;;;12.90;1.00;;;;;;6287977;28;20237;-54
2022/11/09 16:36:32;;;;;;;6.27;5.97;;;12.90;1.00;;;;;;6299781;28;20239;-50